KLGF/LGF METAR and TAF weather

Enter ICAO airport designator
Station Type Date Time Source
KLGF METAR 2019/07/17 12:58 UTC NOAA

KLGF 171258Z AUTO 12003KT 7SM CLR 28/18 A2981 RMK AO2 SLP089 T02810176 $


Station Type Date Time Source
KLGF Decoded METAR 2019/07/17 12:58 UTC NOAA

Station name not available
Jul 17, 2019 - 08:58 AM EDT / 2019.07.17 1258 UTC
Wind: from the ESE (120 degrees) at 3 MPH (3 KT):0
Visibility: 7 mile(s):0
Sky conditions: clear
Temperature: 82.6 F (28.1 C)
Dew Point: 63.7 F (17.6 C)
Relative Humidity: 52%
Pressure (altimeter): 29.81 in. Hg (1009 hPa)
ob: KLGF 171258Z AUTO 12003KT 7SM CLR 28/18 A2981 RMK AO2 SLP089 T02810176
cycle: 13

Station Type Date Time Source
KLGF TAF UTC NOAA

Error!

Example: see airport list